Time;durP1;ratioP1;P1;durP2;ratioP2;P2;SDS_P1;SDS_P2;PMS_P1;PMS_P2;Temp;Humidity;BMP_temperature;BMP_pressure;BME280_temperature;BME280_humidity;BME280_pressure;Samples;Min_cycle;Max_cycle;Signal;HPM_P1;HPM_P2
2023/08/06 00:01:01;;;;;;;0.20;0.20;;;;;;;15.04;100.00;96666.31;6204242;28;20607;-49
2023/08/06 00:04:03;;;;;;;0.20;0.20;;;;;;;14.65;100.00;96622.69;6207355;28;20228;-49
2023/08/06 00:07:06;;;;;;;0.30;0.20;;;;;;;14.84;100.00;96660.19;6210128;28;20278;-47
2023/08/06 00:10:08;;;;;;;0.20;0.20;;;;;;;14.81;100.00;96635.84;6211201;28;20232;-49
2023/08/06 00:13:10;;;;;;;0.30;0.30;;;;;;;14.89;100.00;96646.69;6211157;28;20236;-47
2023/08/06 00:16:13;;;;;;;0.30;0.30;;;;;;;14.86;100.00;96652.63;6208358;28;20633;-48
2023/08/06 00:19:16;;;;;;;0.20;0.20;;;;;;;14.77;100.00;96637.50;6218085;28;20240;-49
2023/08/06 00:22:18;;;;;;;0.63;0.27;;;;;;;14.87;100.00;96640.81;6202653;28;20262;-49
2023/08/06 00:25:20;;;;;;;0.20;0.20;;;;;;;14.81;100.00;96642.00;6205533;28;20244;-48
2023/08/06 00:28:22;;;;;;;0.20;0.20;;;;;;;14.74;100.00;96632.75;6203454;28;20232;-48
2023/08/06 00:31:25;;;;;;;0.23;0.20;;;;;;;14.69;100.00;96637.13;6203644;28;20250;-51
2023/08/06 00:34:27;;;;;;;0.30;0.30;;;;;;;14.74;100.00;96635.44;6196495;28;20228;-48
2023/08/06 00:37:29;;;;;;;0.20;0.20;;;;;;;14.62;100.00;96595.69;6196890;28;20244;-48
2023/08/06 00:40:32;;;;;;;0.23;0.23;;;;;;;14.91;100.00;96631.09;6203373;28;20227;-46
2023/08/06 00:43:34;;;;;;;0.10;0.10;;;;;;;14.91;100.00;96606.16;6202051;28;20251;-49
2023/08/06 00:46:36;;;;;;;0.20;0.20;;;;;;;14.95;100.00;96624.06;6203831;28;20247;-49
2023/08/06 00:49:40;;;;;;;0.20;0.20;;;;;;;14.71;100.00;96613.47;6210540;28;20243;-52
2023/08/06 00:52:45;;;;;;;0.27;0.23;;;;;;;14.87;100.00;96642.69;6203170;28;20725;-47
2023/08/06 00:55:51;;;;;;;0.20;0.20;;;;;;;14.75;100.00;96621.72;6204480;28;20236;-47
2023/08/06 00:58:55;;;;;;;1.43;0.20;;;;;;;14.52;100.00;96598.53;6207340;28;20732;-48
2023/08/06 01:01:58;;;;;;;0.30;0.30;;;;;;;14.62;100.00;96583.06;6189372;28;20595;-49
2023/08/06 01:05:01;;;;;;;0.43;0.30;;;;;;;14.73;100.00;96578.34;6210832;28;20747;-50
2023/08/06 01:08:28;;;;;;;0.20;0.20;;;;;;;14.79;100.00;96617.38;6180553;28;20240;-49
2023/08/06 01:12:23;;;;;;;0.23;0.23;;;;;;;15.02;100.00;96596.84;6187504;28;20240;-48
2023/08/06 01:15:30;;;;;;;0.20;0.20;;;;;;;14.74;100.00;96611.31;6187708;28;20632;-48
2023/08/06 01:18:35;;;;;;;0.30;0.30;;;;;;;14.56;100.00;96583.47;6199322;28;20311;-49
2023/08/06 01:21:39;;;;;;;0.30;0.30;;;;;;;14.73;100.00;96615.06;6210494;28;20352;-48
2023/08/06 01:24:49;;;;;;;0.23;0.23;;;;;;;14.64;100.00;96607.72;6204203;28;20236;-50
2023/08/06 01:27:56;;;;;;;0.33;0.33;;;;;;;14.53;100.00;96592.91;6202781;28;20243;-50
2023/08/06 01:31:03;;;;;;;0.93;0.30;;;;;;;14.53;100.00;96598.25;6190802;28;20747;-47
2023/08/06 01:34:10;;;;;;;1.73;0.50;;;;;;;14.54;100.00;96583.75;6204140;28;20239;-49
2023/08/06 01:37:13;;;;;;;0.90;0.57;;;;;;;14.64;100.00;96580.91;6181065;28;20302;-46
2023/08/06 01:40:15;;;;;;;1.60;0.40;;;;;;;14.53;100.00;96576.00;6203597;28;20331;-50
2023/08/06 01:43:17;;;;;;;0.40;0.30;;;;;;;14.38;100.00;96556.41;6203709;28;20327;-47
2023/08/06 01:46:20;;;;;;;0.70;0.40;;;;;;;14.42;100.00;96576.13;6203271;28;20237;-45
2023/08/06 01:49:22;;;;;;;0.50;0.40;;;;;;;14.21;100.00;96550.78;6204742;28;20744;-48
2023/08/06 01:52:24;;;;;;;1.23;0.50;;;;;;;14.28;100.00;96567.25;6203999;28;20247;-47
2023/08/06 01:55:29;;;;;;;0.40;0.40;;;;;;;14.27;100.00;96571.03;6203157;28;20373;-45
2023/08/06 01:58:32;;;;;;;0.60;0.57;;;;;;;14.27;100.00;96541.56;6195002;28;20236;-48
2023/08/06 02:01:35;;;;;;;0.80;0.40;;;;;;;14.34;100.00;96563.44;6204057;28;20723;-49
2023/08/06 02:04:37;;;;;;;0.50;0.50;;;;;;;14.33;100.00;96553.78;6194471;28;20597;-49
2023/08/06 02:07:39;;;;;;;0.60;0.60;;;;;;;14.26;100.00;96553.38;6197279;28;20235;-47
2023/08/06 02:10:42;;;;;;;0.40;0.40;;;;;;;14.24;100.00;96557.44;6178940;28;20601;-49
2023/08/06 02:13:45;;;;;;;1.67;0.50;;;;;;;14.24;100.00;96547.53;6203531;28;20231;-46
2023/08/06 02:16:52;;;;;;;1.67;0.60;;;;;;;14.10;100.00;96523.38;6199473;28;20600;-47
2023/08/06 02:19:54;;;;;;;0.83;0.83;;;;;;;14.20;100.00;96549.97;6202509;28;20236;-48
2023/08/06 02:22:56;;;;;;;0.70;0.70;;;;;;;14.11;100.00;96556.28;6209958;28;20238;-47
2023/08/06 02:26:04;;;;;;;2.20;0.77;;;;;;;14.22;100.00;96556.94;6202808;28;20236;-47
2023/08/06 02:29:08;;;;;;;0.70;0.70;;;;;;;14.16;100.00;96542.81;6202168;28;20232;-47
2023/08/06 02:32:11;;;;;;;0.77;0.77;;;;;;;14.13;100.00;96548.75;6171983;28;20228;-49
2023/08/06 02:35:13;;;;;;;1.83;0.60;;;;;;;14.24;100.00;96554.78;6204796;28;20229;-46
2023/08/06 02:38:16;;;;;;;1.90;0.67;;;;;;;14.14;100.00;96537.75;6210794;28;20736;-46
2023/08/06 02:41:20;;;;;;;0.83;0.80;;;;;;;14.23;100.00;96532.53;6201388;28;20776;-48
2023/08/06 02:44:28;;;;;;;0.97;0.87;;;;;;;14.37;100.00;96529.88;6196006;28;20235;-48
2023/08/06 02:47:31;;;;;;;0.90;0.87;;;;;;;14.35;100.00;96507.97;6169475;28;20255;-47
2023/08/06 02:50:39;;;;;;;0.57;0.57;;;;;;;14.37;100.00;96509.25;6180641;28;20244;-44
2023/08/06 02:53:41;;;;;;;0.70;0.70;;;;;;;14.22;100.00;96509.50;6184595;28;20281;-48
2023/08/06 02:56:46;;;;;;;0.70;0.70;;;;;;;14.09;100.00;96516.44;6198598;28;20276;-48
2023/08/06 03:00:06;;;;;;;1.20;0.80;;;;;;;14.03;100.00;96506.84;6193839;28;20268;-49
2023/08/06 03:03:08;;;;;;;0.83;0.80;;;;;;;14.01;100.00;96519.75;6206528;28;20228;-48
2023/08/06 03:06:20;;;;;;;3.27;0.93;;;;;;;14.07;100.00;96512.44;6206432;28;20235;-48
2023/08/06 03:09:26;;;;;;;1.00;0.90;;;;;;;14.04;100.00;96510.34;6211840;28;20235;-46
2023/08/06 03:12:28;;;;;;;1.13;1.00;;;;;;;14.02;100.00;96517.88;6207847;28;20228;-48
2023/08/06 03:15:32;;;;;;;0.90;0.90;;;;;;;13.83;100.00;96494.59;6193730;28;20319;-48
2023/08/06 03:18:34;;;;;;;2.57;1.40;;;;;;;13.92;100.00;96526.84;6205946;28;20236;-48
2023/08/06 03:21:39;;;;;;;1.30;1.27;;;;;;;14.04;100.00;96516.50;6205804;28;20220;-50
2023/08/06 03:24:42;;;;;;;1.83;1.70;;;;;;;13.98;100.00;96517.66;6209473;28;20234;-45
2023/08/06 03:27:44;;;;;;;1.50;1.40;;;;;;;13.94;100.00;96514.78;6206116;28;20232;-50
2023/08/06 03:30:59;;;;;;;2.70;1.90;;;;;;;13.93;100.00;96515.06;6177301;28;20229;-47
2023/08/06 03:34:04;;;;;;;2.33;1.47;;;;;;;13.94;100.00;96514.78;6205707;28;20311;-47
2023/08/06 03:37:09;;;;;;;2.90;2.20;;;;;;;13.98;100.00;96516.84;6189498;28;20706;-47
2023/08/06 03:40:12;;;;;;;3.20;2.27;;;;;;;13.94;100.00;96516.66;6206990;28;20745;-47
2023/08/06 03:43:15;;;;;;;1.83;1.73;;;;;;;13.81;100.00;96496.78;6201235;28;20732;-49
2023/08/06 03:46:17;;;;;;;3.27;2.10;;;;;;;13.88;100.00;96502.53;6190969;28;20240;-49
2023/08/06 03:49:19;;;;;;;1.93;1.70;;;;;;;13.74;100.00;96493.66;6189419;28;20859;-50
2023/08/06 03:52:22;;;;;;;2.00;1.90;;;;;;;13.86;100.00;96512.75;6188784;28;20818;-49
2023/08/06 03:55:24;;;;;;;1.80;1.70;;;;;;;13.85;100.00;96510.38;6157568;28;20368;-47
2023/08/06 03:58:27;;;;;;;2.20;2.00;;;;;;;13.85;100.00;96507.72;6154735;28;20280;-50
2023/08/06 04:01:29;;;;;;;2.60;2.40;;;;;;;13.83;100.00;96497.28;6150866;28;20233;-49
2023/08/06 04:04:31;;;;;;;2.30;1.60;;;;;;;13.86;100.00;96503.94;6157139;28;20253;-49
2023/08/06 04:07:34;;;;;;;1.60;1.50;;;;;;;14.10;100.00;96498.47;6149793;28;20229;-46
2023/08/06 04:10:36;;;;;;;4.13;1.30;;;;;;;14.24;100.00;96498.50;6166945;28;20218;-48
2023/08/06 04:13:41;;;;;;;1.40;1.30;;;;;;;14.22;100.00;96498.00;6144089;28;20234;-46
2023/08/06 04:16:44;;;;;;;3.47;2.00;;;;;;;14.24;100.00;96495.84;6154745;28;20281;-47
2023/08/06 04:19:48;;;;;;;1.37;1.27;;;;;;;14.20;100.00;96491.06;6157612;28;20223;-48
2023/08/06 04:22:51;;;;;;;1.90;1.30;;;;;;;14.17;100.00;96491.63;6158066;28;20644;-47
2023/08/06 04:25:57;;;;;;;1.40;1.30;;;;;;;14.21;100.00;96505.25;6157354;28;20234;-49
2023/08/06 04:29:02;;;;;;;1.77;1.53;;;;;;;14.12;100.00;96489.03;6175568;28;20888;-48
2023/08/06 04:32:07;;;;;;;1.40;1.30;;;;;;;14.23;100.00;96499.56;6181665;28;20813;-49
2023/08/06 04:35:11;;;;;;;1.90;1.53;;;;;;;14.24;100.00;96499.31;6166212;28;20236;-48
2023/08/06 04:38:14;;;;;;;1.60;1.50;;;;;;;14.29;100.00;96503.78;6180719;28;20235;-49
2023/08/06 04:41:17;;;;;;;1.57;1.47;;;;;;;14.30;100.00;96500.81;6182591;28;20240;-49
2023/08/06 04:44:20;;;;;;;2.53;1.57;;;;;;;14.24;100.00;96487.81;6181033;28;20227;-49
2023/08/06 04:47:23;;;;;;;3.47;1.80;;;;;;;14.31;100.00;96491.66;6181039;28;20229;-49
2023/08/06 04:50:25;;;;;;;1.53;1.43;;;;;;;14.31;100.00;96491.66;6181035;28;20264;-47
2023/08/06 04:53:28;;;;;;;2.10;1.97;;;;;;;14.28;100.00;96497.59;6180314;28;20233;-45
2023/08/06 04:56:31;;;;;;;2.07;1.70;;;;;;;14.29;100.00;96499.22;6186412;28;20264;-45
2023/08/06 04:59:34;;;;;;;1.43;1.30;;;;;;;14.17;100.00;96472.88;6180903;28;20229;-47
2023/08/06 05:02:38;;;;;;;2.10;1.73;;;;;;;14.39;100.00;96487.53;6181356;28;20229;-46
2023/08/06 05:05:41;;;;;;;3.97;1.60;;;;;;;14.54;100.00;96483.81;6181238;28;20801;-49
2023/08/06 05:08:43;;;;;;;1.83;1.43;;;;;;;14.70;99.45;96496.63;6181638;28;20301;-47
2023/08/06 05:11:47;;;;;;;2.63;1.73;;;;;;;14.64;99.86;96500.50;6186303;28;20228;-51
2023/08/06 05:14:50;;;;;;;1.33;1.17;;;;;;;14.68;98.94;96501.50;6180931;28;20719;-48
2023/08/06 05:17:52;;;;;;;3.00;1.87;;;;;;;14.56;100.00;96490.44;6183656;28;20232;-49
2023/08/06 05:20:55;;;;;;;3.47;1.50;;;;;;;14.52;100.00;96504.72;6187413;28;20232;-46
2023/08/06 05:23:57;;;;;;;2.00;1.90;;;;;;;14.46;100.00;96502.13;6180189;28;20248;-47
2023/08/06 05:26:59;;;;;;;1.30;1.20;;;;;;;14.58;100.00;96496.31;6184444;28;20237;-49
2023/08/06 05:30:01;;;;;;;1.40;1.30;;;;;;;14.62;99.77;96497.28;6180075;28;20241;-48
2023/08/06 05:33:03;;;;;;;1.83;1.50;;;;;;;14.59;100.00;96500.59;6181043;28;20221;-48
2023/08/06 05:36:06;;;;;;;2.07;1.83;;;;;;;14.57;100.00;96510.00;6195538;28;20518;-48
2023/08/06 05:39:08;;;;;;;1.97;1.87;;;;;;;14.51;100.00;96490.53;6176555;28;20291;-48
2023/08/06 05:42:10;;;;;;;1.73;1.60;;;;;;;14.48;100.00;96507.19;6180853;28;20352;-48
2023/08/06 05:45:12;;;;;;;3.10;1.60;;;;;;;14.37;100.00;96503.88;6180157;28;20221;-48
2023/08/06 05:48:14;;;;;;;1.70;1.60;;;;;;;14.38;100.00;96497.47;6179876;28;20214;-46
2023/08/06 05:51:17;;;;;;;1.50;1.40;;;;;;;14.57;100.00;96520.72;6179914;28;20217;-48
2023/08/06 05:54:19;;;;;;;1.60;1.50;;;;;;;14.65;100.00;96536.13;6194928;28;20239;-48
2023/08/06 05:57:21;;;;;;;1.70;1.60;;;;;;;14.51;100.00;96511.97;6203690;28;20693;-48
2023/08/06 06:00:24;;;;;;;2.37;1.40;;;;;;;14.70;100.00;96517.28;6204214;28;20821;-49
2023/08/06 06:03:26;;;;;;;2.00;1.80;;;;;;;14.68;100.00;96522.94;6203290;28;20318;-48
2023/08/06 06:06:28;;;;;;;1.63;1.53;;;;;;;14.70;100.00;96526.09;6203274;28;20582;-46
2023/08/06 06:09:30;;;;;;;2.73;1.30;;;;;;;14.69;100.00;96527.19;6179058;28;20689;-49
2023/08/06 06:12:33;;;;;;;1.40;1.30;;;;;;;14.70;100.00;96536.03;6204052;28;20236;-47
2023/08/06 06:15:35;;;;;;;2.97;1.17;;;;;;;14.71;100.00;96545.66;6203392;28;20226;-48
2023/08/06 06:18:37;;;;;;;2.03;1.60;;;;;;;14.74;100.00;96552.34;6199520;28;20259;-46
2023/08/06 06:21:40;;;;;;;1.50;1.40;;;;;;;14.73;100.00;96559.59;6204143;28;20235;-46
2023/08/06 06:24:42;;;;;;;1.73;1.30;;;;;;;14.83;99.69;96559.41;6203182;28;20323;-48
2023/08/06 06:27:44;;;;;;;3.53;1.37;;;;;;;14.79;100.00;96555.72;6202455;28;20243;-45
2023/08/06 06:30:46;;;;;;;1.20;1.10;;;;;;;14.67;100.00;96521.31;6203340;28;20326;-49
2023/08/06 06:33:49;;;;;;;1.27;1.17;;;;;;;14.77;100.00;96547.16;6206683;28;20252;-48
2023/08/06 06:36:51;;;;;;;1.13;1.10;;;;;;;14.81;100.00;96550.03;6206075;28;20228;-50
2023/08/06 06:39:53;;;;;;;1.43;1.10;;;;;;;14.78;100.00;96547.94;6208044;28;20230;-49
2023/08/06 06:42:55;;;;;;;1.30;1.20;;;;;;;15.10;97.65;96561.28;6208077;28;20232;-47
2023/08/06 06:46:01;;;;;;;2.70;1.20;;;;;;;15.02;99.86;96551.25;6208053;28;20231;-49
2023/08/06 06:49:03;;;;;;;1.10;1.00;;;;;;;15.03;97.54;96544.03;6205351;28;20252;-47
2023/08/06 06:52:06;;;;;;;1.23;1.13;;;;;;;15.00;99.02;96540.03;6207660;28;20240;-46
2023/08/06 06:55:08;;;;;;;2.00;1.00;;;;;;;14.92;100.00;96516.56;6207258;28;20251;-47
2023/08/06 06:58:10;;;;;;;1.13;1.13;;;;;;;14.98;100.00;96509.25;6198961;28;20232;-52
2023/08/06 07:01:12;;;;;;;1.13;1.03;;;;;;;14.98;99.29;96520.78;6211074;28;20331;-47
2023/08/06 07:04:15;;;;;;;1.27;1.03;;;;;;;15.03;100.00;96531.41;6207380;28;20240;-50
2023/08/06 07:07:17;;;;;;;1.00;1.00;;;;;;;15.15;98.55;96550.47;6203344;28;20232;-49
2023/08/06 07:10:19;;;;;;;1.40;1.13;;;;;;;15.06;98.04;96538.03;6207613;28;20240;-47
2023/08/06 07:13:22;;;;;;;1.13;1.07;;;;;;;15.04;98.17;96545.59;6214193;28;20350;-48
2023/08/06 07:16:25;;;;;;;1.23;1.13;;;;;;;15.04;99.45;96537.56;6206285;28;20331;-47
2023/08/06 07:19:28;;;;;;;1.10;1.00;;;;;;;15.00;95.81;96513.22;6207739;28;20239;-47
2023/08/06 07:22:30;;;;;;;1.30;1.20;;;;;;;15.06;97.61;96533.47;6208933;28;20231;-50
2023/08/06 07:25:33;;;;;;;1.47;1.00;;;;;;;15.07;99.93;96553.03;6208048;28;20240;-50
2023/08/06 07:28:35;;;;;;;1.23;1.13;;;;;;;15.05;99.44;96552.56;6205375;28;20223;-48
2023/08/06 07:31:37;;;;;;;1.00;0.90;;;;;;;15.16;93.86;96560.09;6207055;28;20271;-48
2023/08/06 07:34:40;;;;;;;1.37;1.27;;;;;;;15.11;98.82;96554.03;6208614;28;20228;-48
2023/08/06 07:37:43;;;;;;;1.50;1.37;;;;;;;15.05;95.66;96556.03;6207502;28;20220;-47
2023/08/06 07:40:45;;;;;;;1.80;1.20;;;;;;;15.08;95.88;96560.00;6206545;28;20236;-47
2023/08/06 07:43:47;;;;;;;3.33;1.60;;;;;;;15.12;94.94;96548.38;6207535;28;20236;-47
2023/08/06 07:46:50;;;;;;;2.03;1.57;;;;;;;15.15;97.14;96542.41;6206955;28;20251;-50
2023/08/06 07:49:52;;;;;;;1.57;1.47;;;;;;;15.16;98.02;96537.84;6206409;28;20228;-48
2023/08/06 07:52:55;;;;;;;1.40;1.30;;;;;;;15.18;98.08;96530.31;6205809;28;20240;-48
2023/08/06 07:55:57;;;;;;;1.70;1.40;;;;;;;15.11;97.97;96513.78;6193275;28;20341;-46
2023/08/06 07:58:59;;;;;;;1.60;1.50;;;;;;;15.21;97.69;96530.47;6206418;28;20224;-48
2023/08/06 08:02:01;;;;;;;2.27;1.70;;;;;;;15.19;92.48;96524.63;6206488;28;20232;-49
2023/08/06 08:05:04;;;;;;;1.50;1.40;;;;;;;15.27;94.99;96528.50;6206972;28;20235;-48
2023/08/06 08:08:06;;;;;;;2.07;1.50;;;;;;;15.32;93.15;96524.91;6206096;28;20236;-49
2023/08/06 08:11:09;;;;;;;1.57;1.47;;;;;;;15.23;97.06;96511.41;6206479;28;20350;-52
2023/08/06 08:14:11;;;;;;;2.23;1.70;;;;;;;15.32;95.77;96516.84;6205754;28;20314;-47
2023/08/06 08:17:13;;;;;;;1.40;1.30;;;;;;;15.35;95.55;96524.31;6208399;28;20236;-50
2023/08/06 08:20:16;;;;;;;1.50;1.40;;;;;;;15.37;92.01;96524.78;6205416;28;20243;-49
2023/08/06 08:23:19;;;;;;;1.80;1.70;;;;;;;15.38;94.51;96511.09;6206158;28;20247;-50
2023/08/06 08:26:21;;;;;;;3.07;1.63;;;;;;;15.33;92.84;96513.09;6205324;28;20228;-49
2023/08/06 08:29:23;;;;;;;1.90;1.73;;;;;;;15.37;92.19;96522.94;6202914;28;20268;-50
2023/08/06 08:32:26;;;;;;;1.67;1.57;;;;;;;15.45;88.45;96511.47;6204806;28;20244;-48
2023/08/06 08:35:28;;;;;;;1.67;1.57;;;;;;;15.72;85.81;96521.38;6202120;28;20952;-49
2023/08/06 08:38:30;;;;;;;1.63;1.53;;;;;;;15.52;89.80;96537.91;6203571;28;20232;-50
2023/08/06 08:41:33;;;;;;;1.60;1.50;;;;;;;15.42;90.08;96522.03;6204358;28;20231;-47
2023/08/06 08:44:39;;;;;;;1.90;1.80;;;;;;;15.37;88.00;96506.00;6205209;28;20236;-48
2023/08/06 08:47:42;;;;;;;2.00;1.90;;;;;;;15.42;86.73;96520.13;6205661;28;20265;-48
2023/08/06 08:50:48;;;;;;;2.33;2.13;;;;;;;15.47;90.44;96540.72;6205779;28;20307;-49
2023/08/06 08:53:55;;;;;;;2.33;2.13;;;;;;;15.38;90.26;96523.72;6201640;28;20294;-49
2023/08/06 08:56:57;;;;;;;1.93;1.83;;;;;;;15.36;88.42;96512.47;6204768;28;20233;-46
2023/08/06 09:00:00;;;;;;;2.00;1.90;;;;;;;15.45;88.87;96521.41;6202655;28;20236;-50
2023/08/06 09:03:06;;;;;;;2.70;1.90;;;;;;;15.41;90.58;96531.16;6203695;28;20728;-48
2023/08/06 09:06:11;;;;;;;2.23;2.00;;;;;;;15.43;91.85;96534.34;6204701;28;20641;-51
2023/08/06 09:09:20;;;;;;;2.57;2.37;;;;;;;15.51;89.18;96530.94;6201654;28;20746;-47
2023/08/06 09:12:23;;;;;;;2.30;2.03;;;;;;;15.49;89.77;96538.50;6205484;28;20228;-50
2023/08/06 09:15:26;;;;;;;2.70;2.50;;;;;;;15.43;92.77;96520.94;6204596;28;20721;-47
2023/08/06 09:18:29;;;;;;;2.63;2.30;;;;;;;15.51;89.46;96530.13;6205095;28;20295;-50
2023/08/06 09:21:32;;;;;;;2.27;2.07;;;;;;;15.55;91.67;96548.03;6204828;28;20343;-49
2023/08/06 09:24:38;;;;;;;3.13;2.10;;;;;;;15.56;91.51;96551.50;6184134;28;20232;-47
2023/08/06 09:27:40;;;;;;;4.37;2.47;;;;;;;15.60;88.58;96552.50;6202497;28;20244;-50
2023/08/06 09:30:42;;;;;;;2.07;1.93;;;;;;;15.53;88.14;96547.53;6206812;28;20315;-49
2023/08/06 09:33:45;;;;;;;2.50;2.10;;;;;;;15.54;87.89;96542.97;6200457;28;20275;-49
2023/08/06 09:36:56;;;;;;;2.73;2.10;;;;;;;15.55;88.52;96539.19;6178812;28;20232;-49
2023/08/06 09:39:58;;;;;;;2.07;1.97;;;;;;;15.55;91.44;96547.25;6203682;28;20604;-49
2023/08/06 09:43:02;;;;;;;1.73;1.60;;;;;;;15.54;91.21;96553.72;6203794;28;20784;-46
2023/08/06 09:46:16;;;;;;;3.07;2.30;;;;;;;15.55;88.14;96557.97;6204293;28;20240;-50
2023/08/06 09:49:21;;;;;;;2.83;2.00;;;;;;;15.63;86.28;96546.53;6200901;28;20229;-48
2023/08/06 09:52:25;;;;;;;2.07;1.80;;;;;;;15.60;89.02;96555.19;6209355;28;20657;-49
2023/08/06 09:55:27;;;;;;;2.47;1.90;;;;;;;15.55;91.03;96550.72;6200341;28;20240;-48
2023/08/06 09:58:31;;;;;;;3.50;2.37;;;;;;;15.43;90.20;96540.50;6203664;28;20236;-50
2023/08/06 10:01:36;;;;;;;2.27;2.17;;;;;;;15.38;93.28;96555.91;6204667;28;20232;-48
2023/08/06 10:04:38;;;;;;;2.40;1.93;;;;;;;15.36;90.41;96556.19;6198570;28;20248;-47
2023/08/06 10:07:44;;;;;;;3.43;2.13;;;;;;;15.34;90.79;96558.41;6202659;28;20240;-49
2023/08/06 10:10:46;;;;;;;1.90;1.80;;;;;;;15.33;92.50;96564.06;6202838;28;20265;-49
2023/08/06 10:13:53;;;;;;;2.10;2.00;;;;;;;15.46;89.29;96569.41;6203344;28;20251;-49
2023/08/06 10:16:57;;;;;;;2.07;1.87;;;;;;;15.15;90.53;96549.66;6202796;28;20764;-49
2023/08/06 10:20:00;;;;;;;2.53;2.33;;;;;;;15.35;90.24;96586.03;6202632;28;20255;-48
2023/08/06 10:23:04;;;;;;;2.23;2.03;;;;;;;15.22;91.40;96574.19;6194286;28;20608;-48
2023/08/06 10:26:07;;;;;;;2.57;1.80;;;;;;;15.12;96.09;96572.53;6203101;28;20307;-50
2023/08/06 10:29:37;;;;;;;2.87;2.20;;;;;;;15.14;93.90;96577.59;6203379;28;20279;-47
2023/08/06 10:32:50;;;;;;;2.10;2.00;;;;;;;15.12;94.88;96587.81;6199961;28;20311;-47
2023/08/06 10:36:01;;;;;;;2.37;2.07;;;;;;;15.05;97.50;96598.16;6202014;28;20366;-48
2023/08/06 10:39:04;;;;;;;2.33;2.13;;;;;;;15.15;99.07;96592.59;6203361;28;20260;-49
2023/08/06 10:42:20;;;;;;;1.93;1.80;;;;;;;15.19;93.22;96590.91;6203482;28;20295;-46
2023/08/06 10:45:24;;;;;;;2.40;1.80;;;;;;;15.34;93.86;96595.19;6202684;28;20282;-49
2023/08/06 10:48:36;;;;;;;1.90;1.80;;;;;;;15.39;94.47;96600.44;6199925;28;20238;-49
2023/08/06 10:51:39;;;;;;;2.63;2.10;;;;;;;15.60;89.78;96596.25;6202852;28;20251;-50
2023/08/06 10:54:41;;;;;;;2.00;1.83;;;;;;;15.66;88.48;96596.97;6182561;28;20236;-49
2023/08/06 10:57:43;;;;;;;2.20;2.00;;;;;;;15.68;90.81;96594.78;6205198;28;20224;-46
2023/08/06 11:00:46;;;;;;;2.00;1.80;;;;;;;15.68;91.75;96598.25;6203489;28;20258;-47
2023/08/06 11:03:53;;;;;;;2.40;2.10;;;;;;;15.73;92.75;96608.09;6175159;28;20277;-47
2023/08/06 11:06:55;;;;;;;2.40;1.70;;;;;;;15.59;92.93;96596.56;6201934;28;20248;-47
2023/08/06 11:10:05;;;;;;;2.10;1.93;;;;;;;15.56;89.44;96597.13;6202208;28;20236;-47
2023/08/06 11:13:08;;;;;;;2.03;1.83;;;;;;;15.65;87.76;96606.13;6203604;28;20244;-50
2023/08/06 11:16:10;;;;;;;2.50;1.90;;;;;;;15.66;87.96;96615.75;6199663;28;20306;-47
2023/08/06 11:19:14;;;;;;;2.13;1.93;;;;;;;15.62;85.79;96625.50;6202576;28;20259;-49
2023/08/06 11:22:17;;;;;;;3.53;2.03;;;;;;;15.71;86.56;96616.47;6195252;28;20225;-48
2023/08/06 11:25:21;;;;;;;2.90;1.97;;;;;;;15.77;82.22;96617.16;6206297;28;20236;-49
2023/08/06 11:28:24;;;;;;;1.80;1.57;;;;;;;15.72;86.74;96610.00;6210472;28;20235;-49
2023/08/06 11:31:27;;;;;;;2.30;2.00;;;;;;;15.61;85.43;96618.50;6189466;28;20232;-47
2023/08/06 11:34:30;;;;;;;1.70;1.60;;;;;;;15.54;89.60;96620.81;6211072;28;20262;-47
2023/08/06 11:37:33;;;;;;;1.80;1.70;;;;;;;15.32;88.97;96594.66;6207554;28;20246;-46
2023/08/06 11:40:36;;;;;;;2.50;2.00;;;;;;;15.29;89.11;96595.28;6207408;28;20232;-50
2023/08/06 11:43:38;;;;;;;2.27;1.70;;;;;;;15.48;90.82;96617.44;6206819;28;20235;-48
2023/08/06 11:46:55;;;;;;;3.17;1.90;;;;;;;15.44;91.07;96622.59;6206171;28;20240;-49
2023/08/06 11:49:58;;;;;;;2.77;1.90;;;;;;;15.42;91.41;96618.66;6207064;28;20259;-48
2023/08/06 11:53:01;;;;;;;3.10;2.00;;;;;;;15.49;93.75;96633.25;6203264;28;20236;-51
2023/08/06 11:56:03;;;;;;;2.33;2.13;;;;;;;15.45;88.84;96628.75;6205957;28;20224;-50
2023/08/06 11:59:06;;;;;;;2.10;1.90;;;;;;;15.48;92.99;96626.28;6206349;28;20287;-49
2023/08/06 12:02:12;;;;;;;2.47;2.10;;;;;;;15.56;84.43;96632.81;6206491;28;20236;-48
2023/08/06 12:05:24;;;;;;;2.07;1.87;;;;;;;15.53;86.73;96616.53;6205904;28;20232;-49
2023/08/06 12:08:27;;;;;;;2.10;1.80;;;;;;;15.55;88.49;96627.75;6189187;28;20290;-50
2023/08/06 12:11:29;;;;;;;2.13;1.93;;;;;;;15.55;88.66;96631.25;6200578;28;20316;-49
2023/08/06 12:14:31;;;;;;;3.77;2.00;;;;;;;15.58;92.29;96619.91;6205341;28;20232;-49
2023/08/06 12:17:34;;;;;;;2.27;1.93;;;;;;;15.56;88.00;96632.03;6201691;28;20310;-49
2023/08/06 12:20:38;;;;;;;1.80;1.70;;;;;;;15.49;87.39;96609.09;6182442;28;20240;-49
2023/08/06 12:23:40;;;;;;;2.20;2.00;;;;;;;15.59;84.97;96634.94;6204905;28;20315;-46
2023/08/06 12:26:42;;;;;;;2.07;1.87;;;;;;;15.64;86.86;96639.44;6203674;28;20227;-51
2023/08/06 12:29:47;;;;;;;2.80;2.00;;;;;;;15.68;86.84;96629.69;6206216;28;20603;-49
2023/08/06 12:32:51;;;;;;;2.50;2.23;;;;;;;15.68;89.34;96638.53;6205930;28;20232;-51
2023/08/06 12:35:54;;;;;;;4.17;2.37;;;;;;;15.72;88.33;96636.06;6204465;28;20231;-50
2023/08/06 12:38:57;;;;;;;3.40;1.97;;;;;;;15.76;90.65;96636.22;6207588;28;20247;-45
2023/08/06 12:42:04;;;;;;;2.73;1.90;;;;;;;15.80;90.01;96639.91;6201399;28;20237;-48
2023/08/06 12:45:11;;;;;;;1.87;1.77;;;;;;;15.83;91.33;96631.25;6208616;28;20379;-50
2023/08/06 12:48:13;;;;;;;2.10;1.90;;;;;;;15.91;91.55;96631.34;6204399;28;20232;-50
2023/08/06 12:51:16;;;;;;;2.93;1.83;;;;;;;15.80;90.04;96605.78;6206436;28;20235;-51
2023/08/06 12:54:20;;;;;;;2.10;1.87;;;;;;;16.03;92.94;96628.13;6204993;28;20236;-49
2023/08/06 12:57:23;;;;;;;4.67;1.70;;;;;;;16.12;84.67;96629.00;6204066;28;20258;-51
2023/08/06 13:00:32;;;;;;;3.37;1.90;;;;;;;16.21;86.98;96640.63;6209416;28;20315;-51
2023/08/06 13:03:35;;;;;;;2.53;1.93;;;;;;;16.24;89.59;96637.31;6204822;28;20224;-48
2023/08/06 13:06:39;;;;;;;1.93;1.60;;;;;;;16.27;90.34;96629.75;6204632;28;20240;-49
2023/08/06 13:09:42;;;;;;;2.17;1.97;;;;;;;16.28;87.72;96636.72;6204696;28;20229;-51
2023/08/06 13:12:45;;;;;;;2.97;1.90;;;;;;;16.30;88.73;96635.31;6204987;28;20228;-47
2023/08/06 13:15:48;;;;;;;2.10;1.70;;;;;;;16.46;86.14;96641.94;6204494;28;20271;-52
2023/08/06 13:18:50;;;;;;;3.20;1.50;;;;;;;16.40;83.74;96621.66;6205145;28;20387;-50
2023/08/06 13:22:02;;;;;;;2.70;1.70;;;;;;;16.58;88.06;96649.44;6205685;28;20656;-49
2023/08/06 13:25:05;;;;;;;2.17;1.70;;;;;;;16.57;82.71;96642.47;6180151;28;20233;-50
2023/08/06 13:28:07;;;;;;;2.00;1.90;;;;;;;16.56;87.32;96626.66;6203655;28;20236;-49
2023/08/06 13:31:10;;;;;;;3.50;1.47;;;;;;;16.66;84.87;96647.94;6206120;28;20328;-50
2023/08/06 13:34:13;;;;;;;3.17;1.50;;;;;;;16.71;84.19;96650.50;6203122;28;20228;-48
2023/08/06 13:37:16;;;;;;;1.47;1.37;;;;;;;16.80;81.56;96655.94;6204759;28;20236;-48
2023/08/06 13:40:19;;;;;;;1.67;1.43;;;;;;;16.86;84.33;96665.50;6205097;28;20236;-48
2023/08/06 13:43:21;;;;;;;1.77;1.43;;;;;;;16.89;86.60;96673.72;6199707;28;20236;-52
2023/08/06 13:46:24;;;;;;;2.80;1.63;;;;;;;16.82;87.77;96676.06;6202912;28;20591;-51
2023/08/06 13:49:27;;;;;;;1.97;1.43;;;;;;;16.67;88.16;96655.69;6204379;28;20273;-48
2023/08/06 13:52:30;;;;;;;1.63;1.10;;;;;;;16.84;83.45;96673.84;6199874;28;20240;-50
2023/08/06 13:55:33;;;;;;;1.67;1.17;;;;;;;16.86;85.39;96684.31;6201413;28;20232;-49
2023/08/06 13:58:36;;;;;;;1.10;0.77;;;;;;;17.03;72.14;96673.66;6203181;28;20244;-49
2023/08/06 14:01:39;;;;;;;1.40;0.90;;;;;;;17.06;75.28;96689.19;6201787;28;20298;-50
2023/08/06 14:04:53;;;;;;;1.30;1.03;;;;;;;17.00;82.25;96699.28;6203812;28;20729;-49
2023/08/06 14:07:56;;;;;;;0.93;0.90;;;;;;;16.92;73.78;96672.31;6200250;28;20330;-51
2023/08/06 14:10:59;;;;;;;1.57;0.80;;;;;;;17.01;73.95;96692.81;6205308;28;20232;-50
2023/08/06 14:14:02;;;;;;;1.57;1.00;;;;;;;16.92;77.58;96681.19;6203691;28;20239;-49
2023/08/06 14:17:05;;;;;;;1.20;0.60;;;;;;;16.79;79.64;96700.06;6199778;28;20239;-53
2023/08/06 14:20:11;;;;;;;1.33;0.70;;;;;;;16.83;73.40;96691.09;6204361;28;20319;-52